Time;durP1;ratioP1;P1;durP2;ratioP2;P2;SDS_P1;SDS_P2;PMS_P1;PMS_P2;Temp;Humidity;BMP_temperature;BMP_pressure;BME280_temperature;BME280_humidity;BME280_pressure;Samples;Min_cycle;Max_cycle;Signal;HPM_P1;HPM_P2
2022/01/24 05:12:30;;;;;;;1.40;1.40;;;-1.70;99.90;;;;;;5958646;22;20274;-70
2022/01/24 05:23:28;;;;;;;1.45;1.45;;;-1.80;99.90;;;;;;4983518;28;20217;-69
2022/01/24 05:25:55;;;;;;;1.60;1.58;;;-1.80;99.90;;;;;;5013545;28;20280;-70
2022/01/24 05:28:24;;;;;;;1.58;1.58;;;-1.80;99.90;;;;;;5014054;28;20304;-69
2022/01/24 05:30:51;;;;;;;1.60;1.60;;;-1.80;99.90;;;;;;5013816;28;20293;-69
2022/01/24 05:33:18;;;;;;;1.55;1.55;;;-1.80;99.90;;;;;;5013880;28;20225;-69
2022/01/24 05:35:45;;;;;;;1.67;1.67;;;-1.80;99.90;;;;;;5014054;28;20288;-69
2022/01/24 05:38:12;;;;;;;1.83;1.80;;;-1.80;99.90;;;;;;5014150;28;20297;-71
2022/01/24 05:40:39;;;;;;;1.38;1.38;;;-1.80;99.90;;;;;;5014309;28;20233;-71
2022/01/24 05:43:07;;;;;;;1.48;1.48;;;-1.80;99.90;;;;;;5014223;28;20230;-69
2022/01/24 05:45:36;;;;;;;1.38;1.38;;;-1.80;99.90;;;;;;5015080;28;20209;-69
2022/01/24 05:48:04;;;;;;;2.13;1.92;;;-1.80;99.90;;;;;;5015196;28;20293;-71
2022/01/24 05:50:31;;;;;;;1.60;1.60;;;-1.80;99.90;;;;;;5013661;28;20206;-70
2022/01/24 05:52:58;;;;;;;1.25;1.25;;;-1.80;99.90;;;;;;5044385;23;20320;-69
2022/01/24 05:55:25;;;;;;;1.40;1.40;;;-1.80;99.90;;;;;;5033097;28;20236;-69
2022/01/24 05:57:53;;;;;;;1.60;1.60;;;-1.80;99.90;;;;;;5033139;28;20240;-69
2022/01/24 06:00:21;;;;;;;1.40;1.40;;;-1.80;99.90;;;;;;5035859;28;20232;-69
2022/01/24 06:02:50;;;;;;;1.30;1.30;;;-1.80;99.90;;;;;;5041190;28;20251;-69
2022/01/24 06:05:17;;;;;;;1.42;1.42;;;-1.80;99.90;;;;;;5041562;28;20292;-69
2022/01/24 06:07:44;;;;;;;1.70;1.70;;;-1.80;99.90;;;;;;5037026;28;20201;-69
2022/01/24 11:14:57;;;;;;;7.30;6.60;;;2.70;99.90;;;;;;6063013;23;20158;31
2022/01/24 11:17:30;;;;;;;7.22;6.57;;;2.70;99.90;;;;;;4936688;29;20244;-69
2022/01/24 11:20:02;;;;;;;6.97;6.22;;;2.80;99.90;;;;;;4938451;29;20271;-69
2022/01/24 11:22:31;;;;;;;7.20;6.47;;;2.90;99.90;;;;;;4938058;29;20232;-68
2022/01/24 11:25:02;;;;;;;8.02;6.97;;;3.00;99.90;;;;;;4938252;29;20283;-68
2022/01/24 11:27:30;;;;;;;8.98;7.60;;;3.00;99.90;;;;;;4966514;23;20185;-72
2022/01/24 11:30:00;;;;;;;9.85;7.47;;;2.90;99.90;;;;;;4995833;28;20526;-72
2022/01/24 11:32:31;;;;;;;7.35;6.57;;;2.90;99.90;;;;;;4996869;28;20297;-71
2022/01/24 11:34:59;;;;;;;8.00;6.82;;;2.90;99.90;;;;;;4995822;28;20642;-71
2022/01/24 11:37:38;;;;;;;7.47;6.07;;;3.00;99.90;;;;;;4996091;28;20238;-71
2022/01/24 11:40:08;;;;;;;6.55;5.85;;;3.10;99.90;;;;;;4996051;28;20553;-71
2022/01/24 11:42:36;;;;;;;6.75;5.93;;;3.10;99.90;;;;;;4995864;28;20211;-71
2022/01/24 11:45:10;;;;;;;8.88;7.22;;;3.10;99.90;;;;;;4995794;28;20206;-71
2022/01/24 11:47:39;;;;;;;6.95;6.25;;;3.10;99.90;;;;;;4995735;28;20261;-72
2022/01/24 11:50:28;;;;;;;7.65;6.88;;;3.10;99.90;;;;;;4995627;28;20206;-72
2022/01/24 11:52:56;;;;;;;8.65;7.22;;;3.10;99.90;;;;;;4995574;28;20187;-72
2022/01/24 11:55:33;;;;;;;9.52;8.13;;;3.10;99.90;;;;;;4995878;28;20231;-72
2022/01/24 11:58:03;;;;;;;9.32;7.53;;;3.00;99.90;;;;;;4994849;28;20281;-72
2022/01/24 12:00:36;;;;;;;11.48;8.57;;;2.90;99.90;;;;;;4994959;28;20210;-72
2022/01/24 12:03:16;;;;;;;8.70;6.90;;;2.80;99.90;;;;;;4995054;28;20207;-71
2022/01/24 12:05:45;;;;;;;8.48;6.82;;;2.80;99.90;;;;;;4995041;28;20186;-72
2022/01/24 12:08:13;;;;;;;7.57;6.75;;;2.90;99.90;;;;;;4995312;28;20317;-72
2022/01/24 12:10:46;;;;;;;8.05;7.15;;;2.90;99.90;;;;;;4994993;28;20213;-71
2022/01/24 12:13:19;;;;;;;7.53;6.75;;;2.90;99.90;;;;;;4995269;28;20203;-71
2022/01/24 12:16:04;;;;;;;8.57;7.40;;;2.90;99.90;;;;;;4995267;28;20191;-71
2022/01/24 12:18:57;;;;;;;9.25;7.43;;;2.90;99.90;;;;;;4995019;28;20653;-73
2022/01/24 12:21:29;;;;;;;10.45;7.18;;;3.00;99.90;;;;;;4995306;28;20641;-72
2022/01/24 12:24:00;;;;;;;7.90;6.40;;;3.00;99.90;;;;;;4995468;28;20222;-71
2022/01/24 12:26:32;;;;;;;7.53;6.82;;;3.00;99.90;;;;;;4995031;28;20197;-72
2022/01/24 12:29:03;;;;;;;8.77;6.28;;;3.00;99.90;;;;;;4994830;28;20222;-72
2022/01/24 12:31:42;;;;;;;12.80;9.07;;;3.00;99.90;;;;;;4995220;28;20230;-71
2022/01/24 12:34:23;;;;;;;11.35;8.98;;;3.00;99.90;;;;;;4995081;28;20190;-73
2022/01/24 12:37:08;;;;;;;11.50;8.68;;;3.00;99.90;;;;;;4995054;28;20278;-71
2022/01/24 12:40:03;;;;;;;10.15;7.88;;;3.00;99.90;;;;;;4994735;28;20579;-72
2022/01/24 12:42:47;;;;;;;7.63;6.82;;;3.00;99.90;;;;;;4971225;28;20571;-71
2022/01/24 12:48:10;;;;;;;10.25;8.35;;;3.00;99.90;;;;;;4994690;28;20341;-71
2022/01/24 12:50:42;;;;;;;7.60;6.68;;;2.90;99.90;;;;;;4994679;28;20260;-72
2022/01/24 12:53:13;;;;;;;11.27;8.02;;;2.90;99.90;;;;;;4994434;28;20194;-71
2022/01/24 12:55:41;;;;;;;10.30;7.68;;;2.80;99.90;;;;;;4994618;28;20618;-72
2022/01/24 12:58:08;;;;;;;9.05;7.68;;;2.80;99.90;;;;;;4994456;28;20233;-72
2022/01/24 13:00:35;;;;;;;9.27;7.82;;;2.80;99.90;;;;;;4994616;28;20205;-72
2022/01/24 13:03:02;;;;;;;7.18;6.50;;;2.70;99.90;;;;;;4994621;28;20222;-72
2022/01/24 13:05:29;;;;;;;8.05;6.60;;;2.80;99.90;;;;;;4994642;28;20234;-71
2022/01/24 13:07:58;;;;;;;7.60;6.78;;;2.80;99.90;;;;;;4994053;28;20588;-72
2022/01/24 13:10:27;;;;;;;8.80;7.07;;;2.90;99.90;;;;;;4994108;28;20211;-71
2022/01/24 13:13:00;;;;;;;7.72;6.97;;;2.90;99.90;;;;;;4994268;28;20205;-71
2022/01/24 13:23:56;;;;;;;6.95;6.25;;;3.00;99.90;;;;;;4993517;28;20578;-72
2022/01/24 13:26:22;;;;;;;7.18;6.38;;;3.00;99.90;;;;;;4993906;28;20660;-71
2022/01/24 13:28:49;;;;;;;6.43;5.47;;;3.10;99.90;;;;;;4993869;28;20234;-72
2022/01/24 13:31:17;;;;;;;8.63;7.72;;;3.10;99.90;;;;;;4994240;28;20204;-71
2022/01/24 13:33:46;;;;;;;9.05;7.25;;;3.10;99.90;;;;;;4994252;28;20293;-71
2022/01/24 13:36:16;;;;;;;8.10;6.40;;;3.10;99.90;;;;;;4994089;28;20198;-71
2022/01/24 13:38:45;;;;;;;6.63;5.97;;;3.10;99.90;;;;;;4993655;28;20223;-71
2022/01/24 13:41:14;;;;;;;7.68;6.57;;;3.20;99.90;;;;;;4994019;28;20205;-70
2022/01/24 13:43:58;;;;;;;6.60;5.88;;;3.20;99.90;;;;;;4995024;28;20725;-71
2022/01/24 13:46:27;;;;;;;7.10;6.40;;;3.10;99.90;;;;;;4997433;28;20191;-71
2022/01/24 13:48:59;;;;;;;7.47;5.50;;;3.20;99.90;;;;;;4996995;28;20250;-71
2022/01/24 13:51:34;;;;;;;5.85;5.25;;;3.20;99.90;;;;;;4997943;28;20198;-70
2022/01/24 13:54:02;;;;;;;6.30;5.32;;;3.20;99.90;;;;;;4998271;28;20221;-70
2022/01/24 13:56:33;;;;;;;5.47;4.97;;;3.20;99.90;;;;;;4998246;28;20203;-70
2022/01/24 13:59:12;;;;;;;5.70;5.18;;;3.20;99.90;;;;;;4996655;28;20249;-70
2022/01/24 14:01:52;;;;;;;5.20;4.70;;;3.20;99.90;;;;;;4996963;28;20306;-70
2022/01/24 14:04:29;;;;;;;5.10;4.57;;;3.20;99.90;;;;;;4996739;28;20754;-70
2022/01/24 14:06:58;;;;;;;4.65;4.25;;;3.20;99.90;;;;;;4997096;28;20197;-70
2022/01/24 14:09:34;;;;;;;3.78;3.58;;;3.20;99.90;;;;;;4994455;28;20227;-71
2022/01/24 14:12:03;;;;;;;3.97;3.60;;;3.10;99.90;;;;;;4993861;28;20191;-71
2022/01/24 14:14:40;;;;;;;3.90;3.60;;;3.10;99.90;;;;;;4993898;28;20282;-70
2022/01/24 14:17:20;;;;;;;3.83;3.58;;;3.10;99.90;;;;;;4994156;28;20194;-70
2022/01/24 14:19:55;;;;;;;3.40;3.20;;;3.00;99.90;;;;;;4993907;28;20197;-70
2022/01/24 14:22:22;;;;;;;2.95;2.83;;;3.00;99.90;;;;;;4996181;28;20533;-70
2022/01/24 14:24:51;;;;;;;3.00;2.85;;;2.90;99.90;;;;;;4997456;28;20209;-70
2022/01/24 14:27:40;;;;;;;3.20;3.00;;;2.90;99.90;;;;;;4997598;28;20285;-71
2022/01/24 14:30:11;;;;;;;2.88;2.72;;;2.80;99.90;;;;;;4997331;28;20214;-70
2022/01/24 14:32:39;;;;;;;3.03;2.83;;;2.80;99.90;;;;;;4997403;28;20218;-70
2022/01/24 14:35:08;;;;;;;3.10;2.90;;;2.80;99.90;;;;;;4996904;28;20599;-70
2022/01/24 14:37:51;;;;;;;2.85;2.75;;;2.70;99.90;;;;;;4996719;28;20238;-71
2022/01/24 14:40:45;;;;;;;3.35;3.10;;;2.70;99.90;;;;;;4997305;28;20565;-71
2022/01/24 14:46:01;;;;;;;2.80;2.70;;;2.60;99.90;;;;;;4996986;28;20206;-71
2022/01/24 14:48:28;;;;;;;2.97;2.88;;;2.60;99.90;;;;;;5000201;28;20701;-73
2022/01/24 14:50:56;;;;;;;3.00;2.80;;;2.50;99.90;;;;;;4999337;28;20203;-74
2022/01/24 14:53:28;;;;;;;2.53;2.42;;;2.50;99.90;;;;;;5000209;28;20203;-74
2022/01/24 14:55:56;;;;;;;2.78;2.67;;;2.50;99.90;;;;;;4998090;28;20191;-74
2022/01/24 14:58:25;;;;;;;2.20;2.10;;;2.40;99.90;;;;;;4999402;28;20813;-74
2022/01/24 15:00:53;;;;;;;2.65;2.55;;;2.40;99.90;;;;;;4998905;28;20218;-75
2022/01/24 15:03:20;;;;;;;2.85;2.65;;;2.40;99.90;;;;;;5000008;28;20230;-74
2022/01/24 15:05:48;;;;;;;2.30;2.20;;;2.30;99.90;;;;;;4999299;28;20206;-74
2022/01/24 15:08:15;;;;;;;2.15;2.05;;;2.30;99.90;;;;;;4997391;28;20218;-74
2022/01/24 15:10:42;;;;;;;2.88;2.78;;;2.30;99.90;;;;;;4996424;28;20210;-75
2022/01/24 15:13:10;;;;;;;2.55;2.45;;;2.30;99.90;;;;;;4996594;28;20666;-72
2022/01/24 15:15:48;;;;;;;2.72;2.63;;;2.20;99.90;;;;;;4999805;28;20203;-72
2022/01/24 15:26:29;;;;;;;3.45;3.25;;;2.10;99.90;;;;;;5000501;28;20202;-72
2022/01/24 15:28:56;;;;;;;2.88;2.70;;;2.10;99.90;;;;;;4998797;28;20262;-73
2022/01/24 15:31:25;;;;;;;3.20;2.90;;;2.00;99.90;;;;;;4998993;28;20704;-71
2022/01/24 15:33:52;;;;;;;2.92;2.72;;;2.00;99.90;;;;;;4998928;28;20203;-71
2022/01/24 15:36:19;;;;;;;3.78;3.47;;;2.00;99.90;;;;;;4996161;28;20199;-71
2022/01/24 15:38:46;;;;;;;3.83;3.53;;;1.90;99.90;;;;;;4996037;28;20250;-71
2022/01/24 15:41:14;;;;;;;4.00;3.70;;;1.80;99.90;;;;;;4995992;28;20234;-72
2022/01/24 15:43:59;;;;;;;4.25;3.85;;;1.80;99.90;;;;;;4995888;28;20218;-72
2022/01/24 15:46:53;;;;;;;4.00;3.70;;;1.80;99.90;;;;;;4996516;28;20187;-71
2022/01/24 15:49:20;;;;;;;4.35;3.90;;;1.80;99.90;;;;;;4996825;28;20322;-71
2022/01/24 15:51:47;;;;;;;4.68;4.28;;;1.70;99.90;;;;;;4997099;28;20226;-70
2022/01/24 15:54:17;;;;;;;4.40;4.00;;;1.60;99.90;;;;;;4996278;28;20205;-71
2022/01/24 15:59:28;;;;;;;6.82;6.00;;;1.50;99.90;;;;;;4996397;28;20225;-70
2022/01/24 16:01:57;;;;;;;7.45;6.07;;;1.50;99.90;;;;;;4995341;28;20634;-70
2022/01/24 16:04:24;;;;;;;8.60;6.47;;;1.50;99.90;;;;;;4995189;28;20313;-70
2022/01/24 16:06:51;;;;;;;9.10;7.15;;;1.50;99.90;;;;;;4995201;28;20745;-70
2022/01/24 16:09:18;;;;;;;7.93;7.10;;;1.50;99.90;;;;;;4996259;28;20230;-70
2022/01/24 16:11:45;;;;;;;7.93;6.60;;;1.40;99.90;;;;;;4995504;28;20202;-70
2022/01/24 16:14:13;;;;;;;8.48;5.95;;;1.40;99.90;;;;;;4995250;28;20199;-70
2022/01/24 16:16:41;;;;;;;6.35;5.45;;;1.30;99.90;;;;;;4995374;28;20198;-70
2022/01/24 16:19:09;;;;;;;5.57;5.00;;;1.30;99.90;;;;;;4995486;28;20272;-70
2022/01/24 16:21:42;;;;;;;5.78;4.95;;;1.20;99.90;;;;;;4995390;28;20233;-72
2022/01/24 16:26:55;;;;;;;4.70;4.28;;;1.10;99.90;;;;;;4995151;28;20202;-70
2022/01/24 16:29:22;;;;;;;4.50;4.18;;;1.10;99.90;;;;;;4994796;28;20242;-70
2022/01/24 16:31:49;;;;;;;4.63;4.22;;;1.00;99.90;;;;;;4995063;28;20202;-71
2022/01/24 16:34:19;;;;;;;4.55;4.15;;;0.90;99.90;;;;;;4994722;28;20684;-71
2022/01/24 16:36:46;;;;;;;3.83;3.53;;;0.90;99.90;;;;;;4995439;28;20290;-71
2022/01/24 16:39:17;;;;;;;3.90;3.60;;;0.80;99.90;;;;;;4994550;28;20225;-71
2022/01/24 16:41:51;;;;;;;3.65;3.38;;;0.80;99.90;;;;;;4994807;28;20214;-71
2022/01/24 16:44:37;;;;;;;4.28;3.50;;;0.80;99.90;;;;;;4994101;28;20696;-71
2022/01/24 16:47:07;;;;;;;4.13;3.72;;;0.70;99.90;;;;;;4994963;28;20241;-71
2022/01/24 16:49:37;;;;;;;3.83;3.53;;;0.70;99.90;;;;;;4995098;28;20219;-71
2022/01/24 16:52:06;;;;;;;3.58;3.28;;;0.60;99.90;;;;;;4994420;28;20285;-71
2022/01/24 16:54:33;;;;;;;3.55;3.25;;;0.60;99.90;;;;;;4994770;28;20203;-71
2022/01/24 16:57:02;;;;;;;3.53;3.22;;;0.50;99.90;;;;;;4994550;28;20203;-73
2022/01/24 16:59:30;;;;;;;3.22;3.03;;;0.40;99.90;;;;;;4994912;28;20265;-74
2022/01/24 17:01:57;;;;;;;3.55;3.28;;;0.40;99.90;;;;;;4994723;28;20214;-74
2022/01/24 17:04:25;;;;;;;3.20;2.90;;;0.40;99.90;;;;;;4994552;28;20237;-71
2022/01/24 17:06:54;;;;;;;3.40;3.10;;;0.30;99.90;;;;;;4994243;28;20207;-70
2022/01/24 17:09:22;;;;;;;3.08;2.88;;;0.30;99.90;;;;;;4994592;28;20632;-72
2022/01/24 17:11:54;;;;;;;3.60;3.25;;;0.20;99.90;;;;;;4994257;28;20294;-74
2022/01/24 17:14:21;;;;;;;3.38;3.10;;;0.20;99.90;;;;;;4994129;28;20214;-73
2022/01/24 17:16:50;;;;;;;3.15;2.95;;;0.10;99.90;;;;;;4994502;28;20261;-73
2022/01/24 17:19:19;;;;;;;2.75;2.65;;;0.10;99.90;;;;;;4994154;28;20593;-73
2022/01/24 17:21:48;;;;;;;3.20;2.95;;;0.10;99.90;;;;;;4994119;28;20224;-73
2022/01/24 17:24:17;;;;;;;2.95;2.75;;;0.10;99.90;;;;;;4994218;28;20222;-72
2022/01/24 17:26:44;;;;;;;2.83;2.63;;;0.00;99.90;;;;;;4994098;28;20232;-72
2022/01/24 17:29:12;;;;;;;3.00;2.80;;;0.00;99.90;;;;;;4993820;28;20262;-74
2022/01/24 17:31:41;;;;;;;2.63;2.42;;;0.00;99.90;;;;;;4994218;28;20220;-74
2022/01/24 17:34:09;;;;;;;2.28;2.17;;;-0.10;99.90;;;;;;4994179;28;20226;-74
2022/01/24 17:36:36;;;;;;;2.55;2.45;;;-0.10;99.90;;;;;;4994081;28;20229;-74
2022/01/24 17:39:04;;;;;;;2.10;2.00;;;-0.10;99.90;;;;;;4994063;28;20223;-76
2022/01/24 17:41:32;;;;;;;5.00;4.60;;;-0.10;99.90;;;;;;4994199;28;20297;-77
2022/01/24 17:43:59;;;;;;;6.25;4.60;;;-0.10;99.90;;;;;;4993860;28;20219;-76
2022/01/24 17:46:26;;;;;;;5.55;4.32;;;-0.10;99.90;;;;;;4994055;28;20229;-75
2022/01/24 17:48:53;;;;;;;4.57;4.18;;;-0.10;99.90;;;;;;4994286;28;20254;-74
2022/01/24 17:51:20;;;;;;;4.95;4.25;;;-0.10;99.90;;;;;;4994031;28;20293;-73
2022/01/24 17:53:47;;;;;;;4.35;3.95;;;-0.10;99.90;;;;;;4994214;28;20195;-73
2022/01/24 17:56:14;;;;;;;3.97;3.75;;;-0.20;99.90;;;;;;4995712;28;20206;-75
2022/01/24 17:58:44;;;;;;;3.90;3.65;;;-0.10;99.90;;;;;;4999447;28;20233;-74
2022/01/24 18:01:11;;;;;;;3.63;3.33;;;-0.20;99.90;;;;;;5001491;28;20203;-74
2022/01/24 18:03:39;;;;;;;3.90;3.60;;;-0.20;99.90;;;;;;5000905;28;20226;-74
2022/01/24 18:06:08;;;;;;;4.00;3.60;;;-0.20;99.90;;;;;;5002121;28;20222;-72
2022/01/24 18:08:39;;;;;;;3.30;3.08;;;-0.20;99.90;;;;;;5001379;28;20226;-71
2022/01/24 18:11:08;;;;;;;3.60;3.40;;;-0.20;99.90;;;;;;5001586;28;20191;-72
2022/01/24 18:13:35;;;;;;;3.90;3.50;;;-0.20;99.90;;;;;;5000869;28;20210;-73
2022/01/24 18:16:05;;;;;;;3.78;3.53;;;-0.30;99.90;;;;;;5000197;28;20241;-73
2022/01/24 18:18:32;;;;;;;4.80;3.88;;;-0.30;99.90;;;;;;5000422;28;20230;-73
2022/01/24 18:21:00;;;;;;;3.55;3.33;;;-0.40;99.90;;;;;;5000815;28;20226;-73
2022/01/24 18:23:27;;;;;;;3.78;3.47;;;-0.40;99.90;;;;;;4998644;28;20704;-72
2022/01/24 18:25:55;;;;;;;3.55;3.33;;;-0.40;99.90;;;;;;4997784;28;20321;-72
2022/01/24 18:28:22;;;;;;;3.67;3.42;;;-0.40;99.90;;;;;;4997265;28;20242;-74
2022/01/24 18:30:49;;;;;;;3.75;3.45;;;-0.50;99.90;;;;;;4997758;28;20289;-74
2022/01/24 18:33:18;;;;;;;3.53;3.28;;;-0.50;99.90;;;;;;4997523;28;20199;-75
2022/01/24 18:35:45;;;;;;;3.03;2.85;;;-0.50;99.90;;;;;;4997781;28;20198;-74
2022/01/24 18:38:12;;;;;;;4.07;3.80;;;-0.50;99.90;;;;;;5000330;28;20581;-73
2022/01/24 18:40:40;;;;;;;3.80;3.50;;;-0.50;99.90;;;;;;5000481;28;20202;-73
2022/01/24 18:43:07;;;;;;;3.70;3.40;;;-0.60;99.90;;;;;;5000286;28;20206;-73
2022/01/24 18:45:35;;;;;;;4.07;3.78;;;-0.60;99.90;;;;;;5000129;28;20587;-72
2022/01/24 18:48:02;;;;;;;4.72;4.32;;;-0.60;99.90;;;;;;4999764;28;20226;-71
2022/01/24 18:50:31;;;;;;;3.47;3.17;;;-0.70;99.90;;;;;;5000118;28;20749;-73
2022/01/24 18:52:59;;;;;;;4.22;3.80;;;-0.70;99.90;;;;;;4999624;28;20573;-72
2022/01/24 18:55:28;;;;;;;3.70;3.50;;;-0.70;99.90;;;;;;5000103;28;20295;-75
2022/01/24 18:57:55;;;;;;;3.92;3.60;;;-0.70;99.90;;;;;;4998263;28;20222;-74
2022/01/24 19:00:25;;;;;;;3.67;3.35;;;-0.70;99.90;;;;;;4997496;28;20624;-75
2022/01/24 19:02:52;;;;;;;3.08;2.88;;;-0.70;99.90;;;;;;4996876;28;20207;-75
2022/01/24 19:05:24;;;;;;;3.58;3.28;;;-0.80;99.90;;;;;;4997190;28;20229;-75
2022/01/24 19:07:54;;;;;;;3.40;3.10;;;-0.80;99.90;;;;;;4996163;28;20228;-74
2022/01/24 19:10:21;;;;;;;2.85;2.67;;;-0.80;99.90;;;;;;4997815;28;20210;-74
2022/01/24 19:12:49;;;;;;;3.53;3.22;;;-0.80;99.90;;;;;;4996915;28;20298;-75
2022/01/24 19:15:19;;;;;;;3.67;3.38;;;-0.80;99.90;;;;;;4996793;28;20199;-74
2022/01/24 19:17:54;;;;;;;3.45;3.15;;;-0.90;99.90;;;;;;4996757;28;20354;-75
2022/01/24 19:23:17;;;;;;;3.58;3.33;;;-0.90;99.90;;;;;;4996294;28;20179;-72
2022/01/24 19:25:45;;;;;;;3.20;2.90;;;-1.00;99.90;;;;;;4996278;28;20210;-77
2022/01/24 19:28:13;;;;;;;3.40;3.20;;;-1.00;99.90;;;;;;4996130;28;20233;-74
2022/01/24 19:30:40;;;;;;;3.50;3.30;;;-1.00;99.90;;;;;;4996507;28;20666;-72
2022/01/24 19:33:07;;;;;;;3.38;3.13;;;-1.00;99.90;;;;;;4996410;28;20205;-71
2022/01/24 19:35:34;;;;;;;3.65;3.35;;;-1.10;99.90;;;;;;4996313;28;20286;-73
2022/01/24 19:38:01;;;;;;;4.00;3.60;;;-1.10;99.90;;;;;;4996070;28;20218;-71
2022/01/24 19:40:29;;;;;;;3.25;3.05;;;-1.10;99.90;;;;;;4995775;28;20199;-71
2022/01/24 19:42:56;;;;;;;3.22;2.95;;;-1.10;99.90;;;;;;4996104;28;20289;-72
2022/01/24 19:45:26;;;;;;;3.75;3.55;;;-1.10;99.90;;;;;;4996017;28;20233;-72
2022/01/24 19:47:55;;;;;;;3.15;2.95;;;-1.10;99.90;;;;;;4995861;28;20717;-71
2022/01/24 19:50:22;;;;;;;3.15;2.95;;;-1.10;99.90;;;;;;4995573;28;20770;-72
2022/01/24 19:52:50;;;;;;;3.13;2.92;;;-1.10;99.90;;;;;;4996298;28;20290;-73
2022/01/24 19:55:24;;;;;;;3.75;3.42;;;-1.20;99.90;;;;;;4995707;28;20205;-73
2022/01/24 19:57:56;;;;;;;3.05;2.85;;;-1.20;99.90;;;;;;4995910;28;20280;-73
2022/01/24 20:00:24;;;;;;;3.47;3.28;;;-1.20;99.90;;;;;;4995595;28;20211;-72
2022/01/24 20:02:51;;;;;;;3.40;3.10;;;-1.20;99.90;;;;;;4995689;28;20238;-72
2022/01/24 20:05:18;;;;;;;4.05;3.35;;;-1.20;99.90;;;;;;4995668;28;20219;-72
2022/01/24 20:07:48;;;;;;;3.70;3.40;;;-1.10;99.90;;;;;;4995600;28;20233;-73
2022/01/24 20:10:15;;;;;;;3.75;3.42;;;-1.10;99.90;;;;;;4995763;28;20215;-74
2022/01/24 20:12:42;;;;;;;3.13;2.90;;;-1.10;99.90;;;;;;4995530;28;20289;-73
2022/01/24 20:15:13;;;;;;;3.35;3.15;;;-1.00;99.90;;;;;;4995284;28;20211;-73
2022/01/24 20:17:39;;;;;;;3.13;2.92;;;-1.00;99.90;;;;;;4995359;28;20230;-73
2022/01/24 20:20:07;;;;;;;3.28;3.08;;;-0.90;99.90;;;;;;4994388;28;20289;-73
2022/01/24 20:22:34;;;;;;;3.50;3.20;;;-0.90;99.90;;;;;;4995309;28;20289;-73
2022/01/24 20:25:01;;;;;;;3.50;3.30;;;-0.80;99.90;;;;;;4995341;28;20229;-72
2022/01/24 20:27:28;;;;;;;3.78;3.35;;;-0.80;99.90;;;;;;4994870;28;20203;-73
2022/01/24 20:29:55;;;;;;;3.70;3.40;;;-0.70;99.90;;;;;;4995246;28;20282;-74
2022/01/24 20:32:24;;;;;;;3.30;3.10;;;-0.70;99.90;;;;;;4995074;28;20213;-72
2022/01/24 20:34:50;;;;;;;3.47;3.28;;;-0.60;99.90;;;;;;4994751;28;20266;-73
2022/01/24 20:37:18;;;;;;;3.88;3.58;;;-0.60;99.90;;;;;;4994888;28;20278;-72
2022/01/24 20:39:45;;;;;;;3.20;3.00;;;-0.60;99.90;;;;;;4994776;28;20610;-72
2022/01/24 20:42:12;;;;;;;3.97;3.67;;;-0.50;99.90;;;;;;4995037;28;20203;-73
2022/01/24 20:44:40;;;;;;;3.90;3.60;;;-0.50;99.90;;;;;;4994565;28;20229;-71
2022/01/24 20:47:07;;;;;;;3.65;3.38;;;-0.40;99.90;;;;;;4994844;28;20205;-73
2022/01/24 20:49:35;;;;;;;3.03;2.90;;;-0.40;99.90;;;;;;4994592;28;20233;-72
2022/01/24 20:52:02;;;;;;;3.65;3.40;;;-0.40;99.90;;;;;;4994932;28;20210;-72
2022/01/24 20:54:29;;;;;;;3.50;3.20;;;-0.30;99.90;;;;;;4994658;28;20221;-72
2022/01/24 20:56:59;;;;;;;3.70;3.40;;;-0.30;99.90;;;;;;4994360;28;20692;-72
2022/01/24 20:59:26;;;;;;;3.75;3.45;;;-0.30;99.90;;;;;;4994684;28;20230;-73
2022/01/24 21:01:52;;;;;;;4.80;4.30;;;-0.20;99.90;;;;;;4994677;28;20297;-74
2022/01/24 21:04:19;;;;;;;8.27;5.70;;;-0.30;99.90;;;;;;4994209;28;20206;-74
2022/01/24 21:06:47;;;;;;;7.38;6.18;;;-0.30;99.90;;;;;;4994450;28;20736;-72
2022/01/24 21:09:15;;;;;;;11.38;6.90;;;-0.20;99.90;;;;;;4994533;28;20258;-68
2022/01/24 21:11:43;;;;;;;10.13;7.25;;;-0.20;99.90;;;;;;4994407;28;20199;-71
2022/01/24 21:14:13;;;;;;;10.10;7.05;;;-0.30;99.90;;;;;;4994377;28;20614;-71
2022/01/24 21:16:40;;;;;;;10.07;6.95;;;-0.30;99.90;;;;;;4994524;28;20232;-71
2022/01/24 21:19:07;;;;;;;9.20;7.03;;;-0.20;99.90;;;;;;4994544;28;20676;-72
2022/01/24 21:21:34;;;;;;;9.40;6.50;;;-0.20;99.90;;;;;;4994250;28;20257;-72
2022/01/24 21:24:02;;;;;;;7.63;6.10;;;-0.10;99.90;;;;;;4994058;28;20206;-72
2022/01/24 21:26:29;;;;;;;6.75;5.72;;;-0.10;99.90;;;;;;4993771;28;20731;-72
2022/01/24 21:28:56;;;;;;;8.60;6.50;;;-0.10;99.90;;;;;;4993798;28;20658;-71
2022/01/24 21:31:26;;;;;;;6.93;5.35;;;0.00;99.90;;;;;;4994007;28;20202;-71
2022/01/24 21:34:08;;;;;;;7.95;5.70;;;0.00;99.90;;;;;;4994137;28;20210;-72
2022/01/24 21:36:38;;;;;;;6.90;5.05;;;0.00;99.90;;;;;;4995078;28;20356;-72
2022/01/24 21:39:08;;;;;;;7.03;5.68;;;0.00;99.90;;;;;;4994305;28;20227;-72
2022/01/24 21:41:35;;;;;;;9.07;5.90;;;0.00;99.90;;;;;;4994218;28;20293;-72
2022/01/24 21:44:02;;;;;;;8.38;5.53;;;0.00;99.90;;;;;;4994485;28;20212;-72
2022/01/24 21:46:29;;;;;;;8.55;6.50;;;0.00;99.90;;;;;;4994368;28;20227;-72
2022/01/24 21:48:56;;;;;;;6.85;5.47;;;0.00;99.90;;;;;;4993987;28;20229;-72
2022/01/24 21:51:24;;;;;;;6.00;5.28;;;0.00;99.90;;;;;;4993962;28;20202;-72
2022/01/24 21:53:51;;;;;;;6.60;5.60;;;0.00;99.90;;;;;;4993882;28;20242;-72
2022/01/24 21:56:20;;;;;;;6.53;5.22;;;0.00;99.90;;;;;;4993738;28;20202;-71
2022/01/24 21:58:47;;;;;;;5.18;4.70;;;0.10;99.90;;;;;;4994393;28;20232;-71
2022/01/24 22:01:14;;;;;;;5.15;4.65;;;0.10;99.90;;;;;;4993521;28;20199;-70
2022/01/24 22:03:41;;;;;;;6.97;5.35;;;0.10;99.90;;;;;;4993826;28;20289;-71
